Time;durP1;ratioP1;P1;durP2;ratioP2;P2;SDS_P1;SDS_P2;PMS_P1;PMS_P2;Temp;Humidity;BMP_temperature;BMP_pressure;BME280_temperature;BME280_humidity;BME280_pressure;Samples;Min_cycle;Max_cycle;Signal;HPM_P1;HPM_P2
2022/09/29 00:00:51;;;;;;;11.77;11.20;;;11.60;40.00;;;;;;4993508;28;20416;-49
2022/09/29 00:03:17;;;;;;;11.73;11.30;;;11.80;39.30;;;;;;4993983;28;20514;-53
2022/09/29 00:05:54;;;;;;;11.50;11.00;;;11.90;38.20;;;;;;4993729;28;20423;-54
2022/09/29 00:08:23;;;;;;;10.80;10.33;;;12.00;37.80;;;;;;5011280;28;20888;-51
2022/09/29 00:10:49;;;;;;;11.80;11.20;;;12.10;37.60;;;;;;4993497;28;20473;-52
2022/09/29 00:13:15;;;;;;;11.60;11.13;;;12.20;37.30;;;;;;4993733;28;20805;-53
2022/09/29 00:15:41;;;;;;;11.17;10.73;;;12.30;37.00;;;;;;4993572;28;20413;-51
2022/09/29 00:18:08;;;;;;;11.63;11.07;;;12.30;36.70;;;;;;4993186;28;20490;-51
2022/09/29 00:20:34;;;;;;;11.47;10.97;;;12.30;36.50;;;;;;4993331;28;20589;-56
2022/09/29 00:22:59;;;;;;;10.50;10.10;;;12.40;36.50;;;;;;4992995;28;20543;-54
2022/09/29 00:25:26;;;;;;;11.07;10.67;;;12.40;36.40;;;;;;4993508;28;20531;-52
2022/09/29 00:27:51;;;;;;;11.60;11.00;;;12.40;36.50;;;;;;4993166;28;20212;-54
2022/09/29 00:30:17;;;;;;;11.63;10.60;;;12.40;36.60;;;;;;4993155;28;20861;-51
2022/09/29 00:32:43;;;;;;;12.00;11.40;;;12.40;36.20;;;;;;4993010;28;20178;-56
2022/09/29 00:35:09;;;;;;;11.57;11.07;;;12.40;36.00;;;;;;4993162;28;20177;-50
2022/09/29 00:37:35;;;;;;;11.80;11.40;;;12.50;36.10;;;;;;4993092;28;20613;-54
2022/09/29 00:40:02;;;;;;;11.90;11.40;;;12.40;36.60;;;;;;4992703;28;20427;-56
2022/09/29 00:42:28;;;;;;;12.27;11.77;;;12.40;36.10;;;;;;4992814;28;20417;-56
2022/09/29 00:45:18;;;;;;;11.87;11.27;;;12.40;36.30;;;;;;4993060;28;20827;-54
2022/09/29 00:47:48;;;;;;;12.50;11.90;;;12.40;36.20;;;;;;5025799;28;20431;-55
2022/09/29 00:50:20;;;;;;;11.67;11.17;;;12.50;35.90;;;;;;5010687;28;20542;-44
2022/09/29 00:52:52;;;;;;;12.03;11.53;;;12.40;36.00;;;;;;4992257;28;20434;-53
2022/09/29 00:55:45;;;;;;;11.90;11.40;;;12.50;36.20;;;;;;4993276;28;20781;-54
2022/09/29 00:58:24;;;;;;;12.53;11.93;;;12.40;35.60;;;;;;4993240;28;20421;-55
2022/09/29 01:00:50;;;;;;;12.37;11.77;;;12.40;36.00;;;;;;4992936;28;20412;-52
2022/09/29 01:03:21;;;;;;;11.90;11.30;;;12.40;36.00;;;;;;4992711;28;21104;-49
2022/09/29 01:05:53;;;;;;;11.77;11.23;;;12.40;36.00;;;;;;4992946;28;20413;-56
2022/09/29 01:08:47;;;;;;;11.67;11.07;;;12.40;36.20;;;;;;4994743;28;20445;-53
2022/09/29 01:11:14;;;;;;;11.10;10.70;;;12.40;36.50;;;;;;4997097;28;20946;-51
2022/09/29 01:13:40;;;;;;;11.87;11.30;;;12.40;36.20;;;;;;4996920;28;20419;-52
2022/09/29 01:16:06;;;;;;;11.90;11.40;;;12.40;36.40;;;;;;4997004;28;20430;-50
2022/09/29 01:18:33;;;;;;;11.57;10.97;;;12.30;36.50;;;;;;4996617;28;20416;-52
2022/09/29 01:21:17;;;;;;;11.83;11.33;;;12.40;36.90;;;;;;4996743;28;20420;-51
2022/09/29 01:23:48;;;;;;;12.17;11.57;;;12.30;37.00;;;;;;4996527;28;20451;-48
2022/09/29 01:26:26;;;;;;;12.17;11.67;;;12.30;37.40;;;;;;4996757;28;20440;-55
2022/09/29 01:29:22;;;;;;;11.37;10.97;;;12.30;37.40;;;;;;4996305;28;20883;-54
2022/09/29 01:32:19;;;;;;;12.73;12.13;;;12.40;37.10;;;;;;4996369;28;20427;-53
2022/09/29 01:34:51;;;;;;;12.53;11.83;;;12.40;36.90;;;;;;4996402;28;20416;-53
2022/09/29 01:37:41;;;;;;;12.57;11.77;;;12.40;36.80;;;;;;4996156;28;20409;-51
2022/09/29 01:40:17;;;;;;;12.33;11.60;;;12.40;36.80;;;;;;4996293;28;20419;-49
2022/09/29 01:43:00;;;;;;;12.33;11.77;;;12.40;37.00;;;;;;5013608;28;20454;-51
2022/09/29 01:45:33;;;;;;;12.27;11.67;;;12.40;37.20;;;;;;4996234;28;20818;-53
2022/09/29 01:48:24;;;;;;;11.67;11.17;;;12.40;37.10;;;;;;4995829;28;20639;-52
2022/09/29 01:50:55;;;;;;;10.57;10.17;;;12.50;37.30;;;;;;5028543;28;20419;-55
2022/09/29 01:53:29;;;;;;;11.27;10.70;;;12.40;36.90;;;;;;4995946;28;20774;-51
2022/09/29 01:56:00;;;;;;;12.20;11.60;;;12.50;36.80;;;;;;4996122;28;20416;-55
2022/09/29 01:58:43;;;;;;;11.70;11.03;;;12.50;36.70;;;;;;4995739;28;20427;-55
2022/09/29 02:01:13;;;;;;;12.30;11.70;;;12.50;36.80;;;;;;4995459;28;20427;-53
2022/09/29 02:04:03;;;;;;;11.07;10.47;;;12.50;37.00;;;;;;4995735;28;20463;-51
2022/09/29 02:06:36;;;;;;;11.00;10.57;;;12.50;36.70;;;;;;5013326;28;20408;-50
2022/09/29 02:09:10;;;;;;;11.53;11.13;;;12.60;36.60;;;;;;4995562;28;20683;-51
2022/09/29 02:11:39;;;;;;;11.80;11.30;;;12.60;36.60;;;;;;4996152;28;20439;-52
2022/09/29 02:14:22;;;;;;;11.63;11.23;;;12.60;36.20;;;;;;4995943;28;20416;-50
2022/09/29 02:16:56;;;;;;;11.90;11.50;;;12.60;36.70;;;;;;4995694;28;20420;-48
2022/09/29 02:19:25;;;;;;;12.93;11.87;;;12.60;36.60;;;;;;4995134;28;20428;-51
2022/09/29 02:21:53;;;;;;;12.00;11.50;;;12.60;36.40;;;;;;4995749;28;20416;-48
2022/09/29 02:24:20;;;;;;;12.90;11.90;;;12.60;36.60;;;;;;4994908;28;20467;-50
2022/09/29 02:26:47;;;;;;;11.80;11.30;;;12.50;36.60;;;;;;4996010;28;20478;-52
2022/09/29 02:29:13;;;;;;;12.00;11.50;;;12.40;36.70;;;;;;4995174;28;20412;-50
2022/09/29 02:31:39;;;;;;;11.77;11.37;;;12.20;37.60;;;;;;4995310;28;20474;-51
2022/09/29 02:34:09;;;;;;;11.67;11.10;;;12.20;37.80;;;;;;4995401;28;20769;-51
2022/09/29 02:36:47;;;;;;;11.53;11.13;;;12.30;37.50;;;;;;4995089;28;20427;-49
2022/09/29 02:39:26;;;;;;;11.40;11.00;;;12.40;37.30;;;;;;4995424;28;20466;-53
2022/09/29 02:42:25;;;;;;;12.00;11.20;;;12.40;37.70;;;;;;4995037;28;20426;-54
2022/09/29 02:44:59;;;;;;;12.13;11.67;;;12.40;37.50;;;;;;5012785;28;20510;-53
2022/09/29 02:47:41;;;;;;;11.73;11.30;;;12.40;37.20;;;;;;4994943;28;20753;-55
2022/09/29 02:50:22;;;;;;;11.40;11.00;;;12.50;37.10;;;;;;4994707;28;20612;-54
2022/09/29 02:53:16;;;;;;;11.97;11.33;;;12.50;36.80;;;;;;4995003;28;20796;-51
2022/09/29 02:55:56;;;;;;;11.37;10.97;;;12.60;36.70;;;;;;4994917;28;20408;-49
2022/09/29 02:58:36;;;;;;;12.27;11.70;;;12.60;36.50;;;;;;4995343;28;20409;-50
2022/09/29 03:01:04;;;;;;;12.40;11.80;;;12.70;36.50;;;;;;4994903;28;20411;-51
2022/09/29 03:03:30;;;;;;;11.67;11.27;;;12.50;36.10;;;;;;4994319;28;20936;-51
2022/09/29 03:05:55;;;;;;;11.60;11.20;;;12.40;36.60;;;;;;4994592;28;20452;-49
2022/09/29 03:08:21;;;;;;;11.57;11.10;;;12.30;37.30;;;;;;5012128;28;20448;-50
2022/09/29 03:10:47;;;;;;;11.53;11.13;;;12.30;37.60;;;;;;4994504;28;20177;-52
2022/09/29 03:13:12;;;;;;;12.73;12.23;;;12.40;37.30;;;;;;4994733;28;20177;-55
2022/09/29 03:15:38;;;;;;;12.50;12.00;;;12.50;37.20;;;;;;4994749;28;20177;-54
2022/09/29 03:18:04;;;;;;;13.27;12.80;;;12.50;37.10;;;;;;4994483;28;20506;-54
2022/09/29 03:20:30;;;;;;;12.83;12.33;;;12.40;36.60;;;;;;4994525;28;20178;-52
2022/09/29 03:22:56;;;;;;;12.87;12.27;;;12.30;37.30;;;;;;4994426;28;20470;-51
2022/09/29 03:25:23;;;;;;;12.83;12.23;;;12.20;37.50;;;;;;4994488;28;20225;-54
2022/09/29 03:27:49;;;;;;;11.83;11.30;;;12.00;38.50;;;;;;4995137;28;20989;-55
2022/09/29 03:30:16;;;;;;;12.40;11.90;;;12.10;38.60;;;;;;4995231;28;20935;-54
2022/09/29 03:32:42;;;;;;;12.13;11.63;;;12.20;38.50;;;;;;5011874;28;20495;-48
2022/09/29 03:35:09;;;;;;;11.50;11.07;;;12.40;37.90;;;;;;4994748;28;20424;-54
2022/09/29 03:37:35;;;;;;;11.80;11.23;;;12.50;37.60;;;;;;5012750;28;20427;-52
2022/09/29 03:40:02;;;;;;;12.63;11.87;;;12.60;36.60;;;;;;5012704;28;20400;-54
2022/09/29 03:42:28;;;;;;;12.23;11.73;;;12.70;36.90;;;;;;4995267;28;20412;-51
2022/09/29 03:44:54;;;;;;;12.43;11.93;;;12.70;36.70;;;;;;4995372;28;20430;-53
2022/09/29 03:47:20;;;;;;;11.80;11.40;;;12.70;36.50;;;;;;4995729;28;20177;-55
2022/09/29 03:49:45;;;;;;;12.20;11.70;;;12.80;36.50;;;;;;4995725;28;20224;-53
2022/09/29 03:52:11;;;;;;;12.47;11.87;;;12.80;35.60;;;;;;4995508;28;20519;-54
2022/09/29 03:54:37;;;;;;;11.97;11.57;;;12.80;36.40;;;;;;4996078;28;20169;-53
2022/09/29 03:57:03;;;;;;;11.90;11.50;;;12.80;36.40;;;;;;4995918;28;20446;-55
2022/09/29 03:59:29;;;;;;;13.60;13.00;;;12.80;36.30;;;;;;4995528;28;20177;-52
2022/09/29 04:01:55;;;;;;;12.27;11.77;;;12.80;36.40;;;;;;4995374;28;20778;-55
2022/09/29 04:04:20;;;;;;;12.10;11.50;;;12.80;36.50;;;;;;4995348;28;20293;-49
2022/09/29 04:06:46;;;;;;;12.00;11.60;;;12.80;36.50;;;;;;4994995;28;20409;-48
2022/09/29 04:09:12;;;;;;;12.10;11.60;;;12.70;36.60;;;;;;4994959;28;20177;-47
2022/09/29 04:11:37;;;;;;;12.30;11.80;;;12.70;36.60;;;;;;4995040;28;20224;-48
2022/09/29 04:14:03;;;;;;;12.50;12.00;;;12.70;36.50;;;;;;4994746;28;20535;-46
2022/09/29 04:16:29;;;;;;;12.60;12.00;;;12.70;36.40;;;;;;4995443;28;20177;-46
2022/09/29 04:18:55;;;;;;;13.73;12.73;;;12.70;36.70;;;;;;4995353;28;20416;-48
2022/09/29 04:21:20;;;;;;;12.20;11.60;;;12.60;36.90;;;;;;4994972;28;20606;-48
2022/09/29 04:23:46;;;;;;;13.30;12.70;;;12.60;36.90;;;;;;4995411;28;20623;-48
2022/09/29 04:26:12;;;;;;;11.80;11.40;;;12.50;36.80;;;;;;4994845;28;20239;-50
2022/09/29 04:28:38;;;;;;;12.10;11.70;;;12.50;36.80;;;;;;4995280;28;20638;-52
2022/09/29 04:31:04;;;;;;;11.87;11.40;;;12.40;36.90;;;;;;4994587;28;20188;-46
2022/09/29 04:33:30;;;;;;;11.50;11.00;;;12.40;37.10;;;;;;4994808;28;20420;-53
2022/09/29 04:35:57;;;;;;;12.37;11.73;;;12.40;37.20;;;;;;5012354;28;21019;-51
2022/09/29 04:38:23;;;;;;;12.43;11.93;;;12.40;37.00;;;;;;4994515;28;20417;-46
2022/09/29 04:40:49;;;;;;;12.33;11.50;;;11.90;37.70;;;;;;4994438;28;20427;-47
2022/09/29 04:43:15;;;;;;;12.33;11.83;;;11.60;39.40;;;;;;4994886;28;20524;-47
2022/09/29 04:45:40;;;;;;;12.13;11.73;;;11.30;40.40;;;;;;4995027;28;20417;-46
2022/09/29 04:48:06;;;;;;;11.57;10.97;;;11.20;41.40;;;;;;4995208;28;20885;-45
2022/09/29 04:50:32;;;;;;;12.23;11.50;;;11.40;41.40;;;;;;4994797;28;20682;-47
2022/09/29 04:52:58;;;;;;;11.47;11.07;;;11.60;40.50;;;;;;4994941;28;20184;-50
2022/09/29 04:55:24;;;;;;;11.90;11.20;;;11.70;40.30;;;;;;4994117;28;20902;-47
2022/09/29 04:57:50;;;;;;;11.73;11.23;;;11.80;40.20;;;;;;4994970;28;20466;-46
2022/09/29 05:00:16;;;;;;;11.73;11.23;;;11.90;39.40;;;;;;5012400;28;20176;-46
2022/09/29 05:02:42;;;;;;;11.47;10.97;;;11.90;39.50;;;;;;5012678;28;20967;-50
2022/09/29 05:05:09;;;;;;;12.27;11.77;;;12.00;39.10;;;;;;4994903;28;20181;-49
2022/09/29 05:07:35;;;;;;;11.70;11.30;;;12.00;38.60;;;;;;4995027;28;20235;-48
2022/09/29 05:10:02;;;;;;;13.70;12.83;;;12.10;38.60;;;;;;4994700;28;20467;-53
2022/09/29 05:12:27;;;;;;;12.30;11.77;;;12.10;38.20;;;;;;4994879;28;20408;-53
2022/09/29 05:14:53;;;;;;;11.70;11.20;;;12.20;38.00;;;;;;4994563;28;20758;-53
2022/09/29 05:17:19;;;;;;;11.97;11.47;;;12.20;38.00;;;;;;4994868;28;20185;-48
2022/09/29 05:19:44;;;;;;;13.17;12.57;;;12.20;38.20;;;;;;5008718;28;20191;-50
2022/09/29 05:22:10;;;;;;;12.60;11.90;;;12.20;37.90;;;;;;5013876;28;20234;-53
2022/09/29 05:24:35;;;;;;;11.53;11.03;;;12.20;37.70;;;;;;5014076;28;20560;-54
2022/09/29 05:27:01;;;;;;;13.43;12.83;;;12.10;37.10;;;;;;5014258;28;20294;-49
2022/09/29 05:29:27;;;;;;;12.63;11.93;;;11.70;39.10;;;;;;5014337;28;20512;-52
2022/09/29 05:31:52;;;;;;;13.50;12.93;;;11.60;39.50;;;;;;5031667;28;20527;-47
2022/09/29 05:34:18;;;;;;;13.83;12.67;;;11.70;40.10;;;;;;5013763;28;20268;-53
2022/09/29 05:36:44;;;;;;;13.77;13.17;;;11.80;39.20;;;;;;5014405;28;20193;-50
2022/09/29 05:39:10;;;;;;;13.37;12.57;;;11.90;38.80;;;;;;5014099;28;20342;-52
2022/09/29 05:41:35;;;;;;;13.77;12.97;;;11.90;38.40;;;;;;5004487;28;20217;-52
2022/09/29 05:44:01;;;;;;;12.90;12.30;;;12.00;38.30;;;;;;4994506;28;20518;-50
2022/09/29 05:46:27;;;;;;;14.07;13.40;;;12.00;37.90;;;;;;5012254;28;20201;-47
2022/09/29 05:48:53;;;;;;;13.67;13.07;;;11.90;38.90;;;;;;4994671;28;20487;-48
2022/09/29 05:51:21;;;;;;;12.83;12.23;;;11.90;38.90;;;;;;4994454;28;20507;-51
2022/09/29 05:53:47;;;;;;;13.10;12.40;;;12.00;38.40;;;;;;4994128;28;20185;-48
2022/09/29 05:56:18;;;;;;;14.93;13.87;;;12.00;37.90;;;;;;4997395;28;20435;-55
2022/09/29 05:58:44;;;;;;;13.67;13.10;;;12.10;38.00;;;;;;4996456;28;20185;-55
2022/09/29 06:01:13;;;;;;;13.03;12.33;;;12.10;37.80;;;;;;4997157;28;20424;-55
2022/09/29 06:03:39;;;;;;;14.00;13.20;;;12.10;37.60;;;;;;4997726;28;20216;-54
2022/09/29 06:06:17;;;;;;;13.30;12.70;;;12.20;37.50;;;;;;4997623;28;20420;-52
2022/09/29 06:08:43;;;;;;;12.60;11.90;;;12.20;37.70;;;;;;4997649;28;20423;-50
2022/09/29 06:11:21;;;;;;;13.17;12.57;;;12.20;37.20;;;;;;4997779;28;20924;-49
2022/09/29 06:13:50;;;;;;;12.70;12.10;;;12.30;37.30;;;;;;5014898;28;20491;-48
2022/09/29 06:16:18;;;;;;;12.90;11.90;;;12.30;37.10;;;;;;4997592;28;20789;-49
2022/09/29 06:18:44;;;;;;;13.93;12.80;;;12.10;36.90;;;;;;4997193;28;20420;-48
2022/09/29 06:21:13;;;;;;;14.77;13.67;;;11.60;39.30;;;;;;4997409;28;20837;-48
2022/09/29 06:23:39;;;;;;;13.83;12.87;;;11.50;39.70;;;;;;5014685;28;20459;-50
2022/09/29 06:26:10;;;;;;;13.13;12.63;;;11.40;41.00;;;;;;4997131;28;20450;-51
2022/09/29 06:28:36;;;;;;;14.40;13.50;;;11.20;40.80;;;;;;4997166;28;20420;-48
2022/09/29 06:31:07;;;;;;;15.13;14.37;;;11.20;41.70;;;;;;4997019;28;20876;-48
2022/09/29 06:33:35;;;;;;;15.33;13.90;;;11.30;42.20;;;;;;4997037;28;20188;-47
2022/09/29 06:38:49;;;;;;;15.30;14.57;;;11.40;41.00;;;;;;5014582;28;20499;-48
2022/09/29 06:41:15;;;;;;;15.17;14.37;;;11.50;41.00;;;;;;4996966;28;20762;-50
2022/09/29 06:43:41;;;;;;;15.33;14.33;;;11.50;40.80;;;;;;4996642;28;20213;-49
2022/09/29 06:46:06;;;;;;;16.50;15.47;;;11.70;40.30;;;;;;4996929;28;20174;-50
2022/09/29 06:48:32;;;;;;;13.73;13.03;;;11.60;40.70;;;;;;4996744;28;20604;-46
2022/09/29 06:51:01;;;;;;;14.37;13.67;;;11.60;40.70;;;;;;4996683;28;20204;-48
2022/09/29 06:53:26;;;;;;;13.50;12.90;;;11.60;40.20;;;;;;4996612;28;20183;-49
2022/09/29 06:55:54;;;;;;;13.00;12.30;;;11.60;40.70;;;;;;4996675;28;20424;-50
2022/09/29 06:58:20;;;;;;;15.67;14.67;;;11.70;40.80;;;;;;4996384;28;20345;-49
2022/09/29 07:00:45;;;;;;;13.10;12.50;;;11.60;39.60;;;;;;4995702;28;20409;-50
2022/09/29 07:03:11;;;;;;;12.97;12.27;;;11.60;39.80;;;;;;4996288;28;20666;-47
2022/09/29 07:05:37;;;;;;;14.87;14.00;;;11.70;39.70;;;;;;4996374;28;20181;-51
2022/09/29 07:08:03;;;;;;;13.83;13.13;;;11.50;40.30;;;;;;5013680;28;20177;-46
2022/09/29 07:10:29;;;;;;;14.97;13.97;;;11.20;41.40;;;;;;4996370;28;20177;-49
2022/09/29 07:12:54;;;;;;;15.00;14.07;;;11.20;42.10;;;;;;4996132;28;20427;-48
2022/09/29 07:15:20;;;;;;;12.60;11.93;;;11.20;41.60;;;;;;4996456;28;20449;-50
2022/09/29 07:17:50;;;;;;;13.60;12.90;;;11.30;41.70;;;;;;4996145;28;20181;-51
2022/09/29 07:20:16;;;;;;;14.03;13.30;;;11.40;40.80;;;;;;4995630;28;20182;-49
2022/09/29 07:22:45;;;;;;;13.90;13.10;;;11.30;41.10;;;;;;4996096;28;20431;-49
2022/09/29 07:25:10;;;;;;;13.77;12.83;;;11.40;41.10;;;;;;4995903;28;20196;-53
2022/09/29 07:27:36;;;;;;;15.63;14.23;;;11.60;40.50;;;;;;4996081;28;20421;-51
2022/09/29 07:30:02;;;;;;;14.07;13.27;;;11.60;40.30;;;;;;4995521;28;20272;-51
2022/09/29 07:32:31;;;;;;;15.00;13.63;;;11.50;41.40;;;;;;4995989;28;20182;-50
2022/09/29 07:34:57;;;;;;;14.30;13.27;;;11.40;42.50;;;;;;4995945;28;20193;-53
2022/09/29 07:37:24;;;;;;;13.93;13.33;;;11.30;42.80;;;;;;4995915;28;20471;-46
2022/09/29 07:39:50;;;;;;;14.50;13.50;;;11.40;42.10;;;;;;4995766;28;20421;-46
2022/09/29 07:42:17;;;;;;;13.13;12.33;;;11.60;42.00;;;;;;4995510;28;20432;-49
2022/09/29 07:44:42;;;;;;;13.20;12.40;;;11.70;40.60;;;;;;4995643;28;20554;-46
2022/09/29 07:47:08;;;;;;;12.43;11.80;;;11.80;40.10;;;;;;4995647;28;20909;-49
2022/09/29 07:49:34;;;;;;;13.13;12.40;;;11.80;40.80;;;;;;4995661;28;20185;-48
2022/09/29 07:52:00;;;;;;;14.27;13.37;;;11.80;40.00;;;;;;4995548;28;20181;-47
2022/09/29 07:54:26;;;;;;;16.73;15.60;;;11.90;39.60;;;;;;4995494;28;20570;-49
2022/09/29 07:56:51;;;;;;;13.20;12.40;;;12.00;38.80;;;;;;5013164;28;20420;-48
2022/09/29 07:59:17;;;;;;;13.70;12.80;;;11.90;39.20;;;;;;4995334;28;20420;-47
2022/09/29 08:01:43;;;;;;;13.50;12.90;;;12.00;39.30;;;;;;4995093;28;20435;-45
2022/09/29 08:04:08;;;;;;;13.57;12.77;;;12.00;39.10;;;;;;4995434;28;20219;-44
2022/09/29 08:06:36;;;;;;;24.33;13.13;;;11.90;39.80;;;;;;4995316;28;20182;-49
2022/09/29 08:09:01;;;;;;;13.77;12.90;;;11.80;40.50;;;;;;4994987;28;20181;-47
2022/09/29 08:11:27;;;;;;;13.30;12.70;;;11.80;40.40;;;;;;4994951;28;20422;-50
2022/09/29 08:13:53;;;;;;;14.60;13.60;;;11.70;41.00;;;;;;4995222;28;20181;-51
2022/09/29 08:16:19;;;;;;;13.70;12.70;;;11.60;41.00;;;;;;4995240;28;20177;-50
2022/09/29 08:18:45;;;;;;;13.23;12.53;;;11.70;41.60;;;;;;4994417;28;20197;-51
2022/09/29 08:21:13;;;;;;;12.63;11.93;;;11.70;41.10;;;;;;4995240;28;20513;-55
2022/09/29 08:23:41;;;;;;;13.17;12.30;;;11.60;41.40;;;;;;4995040;28;20217;-52
2022/09/29 08:26:10;;;;;;;13.77;13.07;;;11.50;42.20;;;;;;4994061;28;20586;-46
2022/09/29 08:28:37;;;;;;;13.60;12.80;;;11.70;41.70;;;;;;4995176;28;20421;-49
2022/09/29 08:31:08;;;;;;;14.00;13.30;;;11.70;41.50;;;;;;4994965;28;20419;-47
2022/09/29 08:33:35;;;;;;;13.30;12.47;;;11.80;41.30;;;;;;4994996;28;20473;-45
2022/09/29 08:36:04;;;;;;;11.83;11.33;;;11.90;41.20;;;;;;4993864;28;20894;-45
2022/09/29 08:38:31;;;;;;;12.40;11.80;;;12.00;40.90;;;;;;4995039;28;20507;-50
2022/09/29 08:41:02;;;;;;;11.83;11.33;;;12.10;40.40;;;;;;4994928;28;20421;-51
2022/09/29 08:43:38;;;;;;;12.40;11.90;;;12.10;39.90;;;;;;4995014;28;20468;-47
2022/09/29 08:46:20;;;;;;;13.67;12.77;;;12.10;39.90;;;;;;4994992;28;20562;-47
2022/09/29 08:48:47;;;;;;;12.10;11.40;;;12.10;40.90;;;;;;5012467;28;20411;-45
2022/09/29 08:51:31;;;;;;;12.17;11.57;;;12.30;39.90;;;;;;4994910;28;20900;-47
2022/09/29 08:54:02;;;;;;;13.30;12.50;;;12.40;39.30;;;;;;4994740;28;20424;-45
2022/09/29 08:56:28;;;;;;;12.87;12.13;;;12.60;38.90;;;;;;4994542;28;20431;-46
2022/09/29 08:58:54;;;;;;;12.33;11.63;;;12.70;38.50;;;;;;4994303;28;20819;-47
2022/09/29 09:01:19;;;;;;;13.27;12.37;;;12.90;37.60;;;;;;4994277;28;20431;-47
2022/09/29 09:04:00;;;;;;;12.43;11.73;;;12.80;37.50;;;;;;4994409;28;20208;-46
2022/09/29 09:06:40;;;;;;;13.03;12.43;;;12.80;38.30;;;;;;4994423;28;20271;-48
2022/09/29 09:09:13;;;;;;;12.90;12.20;;;13.00;37.50;;;;;;4994163;28;20483;-49
2022/09/29 09:11:45;;;;;;;13.17;12.47;;;13.20;36.90;;;;;;4994264;28;20438;-47
2022/09/29 09:14:35;;;;;;;12.10;11.33;;;13.20;36.40;;;;;;4994427;28;20420;-46
2022/09/29 09:17:16;;;;;;;11.93;11.33;;;13.20;35.70;;;;;;4994462;28;21029;-45
2022/09/29 09:20:00;;;;;;;12.40;11.83;;;13.10;35.40;;;;;;4994211;28;20420;-54
2022/09/29 09:22:34;;;;;;;11.33;10.83;;;13.20;35.90;;;;;;5012195;28;20420;-56
2022/09/29 09:25:27;;;;;;;12.60;12.00;;;13.30;35.50;;;;;;4994565;28;20666;-56
2022/09/29 09:27:58;;;;;;;12.57;11.77;;;13.20;34.30;;;;;;4995210;28;20960;-56
2022/09/29 09:30:29;;;;;;;11.10;10.60;;;13.20;35.20;;;;;;4996476;28;20424;-53
2022/09/29 09:33:03;;;;;;;12.23;11.53;;;13.10;34.20;;;;;;4998929;28;20636;-53
2022/09/29 09:35:51;;;;;;;11.70;11.10;;;13.10;34.20;;;;;;4998664;28;20567;-44
2022/09/29 09:38:53;;;;;;;11.67;11.07;;;13.10;34.20;;;;;;4998319;28;20423;-49
2022/09/29 09:41:22;;;;;;;11.20;10.73;;;13.00;34.80;;;;;;4997872;28;21042;-47
2022/09/29 09:43:53;;;;;;;11.67;11.17;;;13.00;35.20;;;;;;4998040;28;20514;-48
2022/09/29 09:46:29;;;;;;;11.47;10.97;;;13.00;35.40;;;;;;4998242;28;20420;-47
2022/09/29 09:49:16;;;;;;;12.47;11.67;;;13.20;34.70;;;;;;4998331;28;20451;-44
2022/09/29 09:52:09;;;;;;;11.67;11.00;;;13.20;35.10;;;;;;4997725;28;20995;-47
2022/09/29 09:54:38;;;;;;;10.60;10.20;;;13.30;34.40;;;;;;4997929;28;20431;-49
2022/09/29 09:57:15;;;;;;;12.47;11.77;;;13.30;33.60;;;;;;5015478;28;20415;-46
2022/09/29 09:59:53;;;;;;;10.23;9.80;;;13.20;34.30;;;;;;4997903;28;20426;-46
2022/09/29 10:02:21;;;;;;;10.10;9.57;;;13.20;34.30;;;;;;4997960;28;20428;-45
2022/09/29 10:04:51;;;;;;;11.10;10.60;;;13.00;34.20;;;;;;4997731;28;20467;-57
2022/09/29 10:07:19;;;;;;;10.97;10.57;;;13.00;34.60;;;;;;4997784;28;20426;-56
2022/09/29 10:09:46;;;;;;;10.87;10.50;;;13.10;35.40;;;;;;4997977;28;20511;-56
2022/09/29 10:12:19;;;;;;;11.47;10.70;;;13.20;34.30;;;;;;4997664;28;20411;-52
2022/09/29 10:15:02;;;;;;;10.57;10.17;;;13.30;33.00;;;;;;4997522;28;20432;-53
2022/09/29 10:17:36;;;;;;;11.10;10.60;;;13.30;33.40;;;;;;5015388;28;20511;-57
2022/09/29 10:20:06;;;;;;;11.57;11.07;;;13.30;33.40;;;;;;4997510;28;20463;-56
2022/09/29 10:22:33;;;;;;;11.40;10.90;;;13.30;33.70;;;;;;4997642;28;20428;-51
2022/09/29 10:25:17;;;;;;;11.43;10.80;;;13.20;33.60;;;;;;4997117;28;20472;-54
2022/09/29 10:27:47;;;;;;;11.00;10.57;;;13.20;34.30;;;;;;4997520;28;20425;-53
2022/09/29 10:30:31;;;;;;;10.67;10.10;;;13.30;33.80;;;;;;4997243;28;20474;-54
2022/09/29 10:32:59;;;;;;;11.13;10.73;;;13.40;30.60;;;;;;4997488;28;20505;-56
2022/09/29 10:35:30;;;;;;;10.80;10.27;;;13.40;31.40;;;;;;4997420;28;20514;-53
2022/09/29 10:38:05;;;;;;;10.13;9.73;;;13.50;30.20;;;;;;4997249;28;20431;-53
2022/09/29 10:40:32;;;;;;;10.33;10.03;;;13.50;30.60;;;;;;4996671;28;20416;-56
2022/09/29 10:42:57;;;;;;;9.87;9.50;;;13.60;29.90;;;;;;4997271;28;20499;-55
2022/09/29 10:45:29;;;;;;;11.03;10.47;;;13.70;29.90;;;;;;4997105;28;20853;-53
2022/09/29 10:47:58;;;;;;;10.90;10.50;;;13.70;29.30;;;;;;4997249;28;20178;-56
2022/09/29 10:50:31;;;;;;;10.10;9.70;;;13.80;29.80;;;;;;5004769;28;20943;-55
2022/09/29 10:52:59;;;;;;;10.20;9.80;;;13.90;29.10;;;;;;5016601;28;20415;-56
2022/09/29 10:55:34;;;;;;;9.77;9.27;;;14.10;28.90;;;;;;5016510;28;20913;-57
2022/09/29 10:58:23;;;;;;;9.87;9.47;;;14.10;27.90;;;;;;5016593;28;20411;-56
2022/09/29 11:01:01;;;;;;;9.83;9.47;;;14.00;28.50;;;;;;5016331;28;20503;-57
2022/09/29 11:03:27;;;;;;;9.57;9.03;;;14.00;28.30;;;;;;5016444;28;20469;-53
2022/09/29 11:06:02;;;;;;;9.63;9.13;;;14.10;28.40;;;;;;5049388;28;20868;-55
2022/09/29 11:08:28;;;;;;;9.00;8.50;;;14.20;28.00;;;;;;5016448;28;20649;-52
2022/09/29 11:11:16;;;;;;;9.20;8.80;;;14.30;26.80;;;;;;5016085;28;20473;-51
2022/09/29 11:13:44;;;;;;;8.53;8.13;;;14.30;26.70;;;;;;5016304;28;20766;-51
2022/09/29 11:16:17;;;;;;;9.50;8.80;;;14.30;26.10;;;;;;5016216;28;20415;-53
2022/09/29 11:18:47;;;;;;;9.50;9.10;;;14.30;26.10;;;;;;5016242;28;20428;-54
2022/09/29 11:21:20;;;;;;;9.83;9.37;;;14.30;26.10;;;;;;4997078;28;20431;-54
2022/09/29 11:23:57;;;;;;;10.90;10.27;;;14.40;26.70;;;;;;4996327;28;20470;-55
2022/09/29 11:26:26;;;;;;;10.53;10.03;;;14.40;26.80;;;;;;4996480;28;20499;-53
2022/09/29 11:29:21;;;;;;;11.43;10.90;;;14.50;26.90;;;;;;4998967;28;20416;-56
2022/09/29 11:31:52;;;;;;;9.20;8.80;;;14.50;26.40;;;;;;4997492;28;20935;-52
2022/09/29 11:34:33;;;;;;;9.20;8.90;;;14.50;26.20;;;;;;4996334;28;20506;-54
2022/09/29 11:37:14;;;;;;;12.93;12.10;;;14.50;26.20;;;;;;5003255;28;20939;-55
2022/09/29 11:40:04;;;;;;;9.33;8.77;;;14.40;26.20;;;;;;4996124;28;20516;-50
2022/09/29 11:42:36;;;;;;;9.53;9.13;;;14.50;27.30;;;;;;4983453;28;20485;-55
2022/09/29 11:45:06;;;;;;;10.47;10.03;;;14.60;27.00;;;;;;4996137;28;20569;-52
2022/09/29 11:47:54;;;;;;;9.73;9.40;;;14.60;27.20;;;;;;4996179;28;20417;-53
2022/09/29 11:50:28;;;;;;;9.93;9.43;;;14.60;26.90;;;;;;4996096;28;20444;-53
2022/09/29 11:53:29;;;;;;;10.37;9.97;;;14.60;27.30;;;;;;4994940;28;20408;-53
2022/09/29 11:56:01;;;;;;;9.93;9.53;;;14.50;27.60;;;;;;4995865;28;20466;-54
2022/09/29 11:58:43;;;;;;;9.73;9.33;;;14.50;28.30;;;;;;4995773;28;20435;-52
2022/09/29 12:01:27;;;;;;;11.20;10.50;;;14.40;27.90;;;;;;4995884;28;20424;-52
2022/09/29 12:04:14;;;;;;;9.50;9.20;;;14.40;28.10;;;;;;4995773;28;20495;-55
2022/09/29 12:06:40;;;;;;;11.00;10.50;;;14.50;28.20;;;;;;4995699;28;20428;-52
2022/09/29 12:09:21;;;;;;;11.10;10.33;;;14.60;27.60;;;;;;4995572;28;20753;-53
2022/09/29 12:11:59;;;;;;;10.70;10.40;;;14.60;27.50;;;;;;4995340;28;20212;-54
2022/09/29 12:14:52;;;;;;;10.93;10.53;;;14.60;27.40;;;;;;5013155;28;20408;-48
2022/09/29 12:17:19;;;;;;;10.70;10.30;;;14.60;28.50;;;;;;4994753;28;20429;-46
2022/09/29 12:19:50;;;;;;;10.50;10.10;;;14.70;28.40;;;;;;4995179;28;20494;-48
2022/09/29 12:22:18;;;;;;;10.33;9.83;;;14.80;28.20;;;;;;4994775;28;20424;-49
2022/09/29 12:24:48;;;;;;;12.50;11.70;;;14.80;27.30;;;;;;5011417;28;20932;-48
2022/09/29 12:27:23;;;;;;;11.37;10.97;;;14.90;26.50;;;;;;4995261;28;20438;-51
2022/09/29 12:29:57;;;;;;;11.33;10.50;;;14.90;26.50;;;;;;4994560;28;20430;-48
2022/09/29 12:32:35;;;;;;;10.50;10.00;;;14.90;26.50;;;;;;4994930;28;20424;-50
2022/09/29 12:35:14;;;;;;;11.20;10.80;;;14.90;26.50;;;;;;4994883;28;20431;-42
2022/09/29 12:37:48;;;;;;;11.13;10.63;;;14.90;25.90;;;;;;4994781;28;20420;-43
2022/09/29 12:40:43;;;;;;;11.20;10.70;;;14.90;26.30;;;;;;4994144;28;20427;-43
2022/09/29 12:43:53;;;;;;;11.10;10.60;;;14.90;25.70;;;;;;4992436;28;20467;-42
2022/09/29 12:46:36;;;;;;;11.20;10.50;;;14.80;25.50;;;;;;4967235;28;20420;-42
2022/09/29 12:49:37;;;;;;;11.87;11.37;;;14.60;26.00;;;;;;4994741;28;20453;-48
2022/09/29 12:52:08;;;;;;;11.20;10.80;;;14.60;26.30;;;;;;4994237;28;20458;-44